createdAt,value
2023-02-24T00:02:14.700Z,101614.14
2023-02-24T00:04:45.186Z,101610.73
2023-02-24T00:07:14.365Z,101612.88
2023-02-24T00:09:45.118Z,101610.65
2023-02-24T00:12:13.804Z,101608.76
2023-02-24T00:14:55.495Z,101599.73
2023-02-24T00:17:27.432Z,101598.98
2023-02-24T00:19:55.755Z,101604.45
2023-02-24T00:22:23.917Z,101603.64
2023-02-24T00:24:54.224Z,101608.03
2023-02-24T00:27:22.634Z,101611.36
2023-02-24T00:29:50.371Z,101593.55
2023-02-24T00:32:17.940Z,101585.94
2023-02-24T00:34:47.639Z,101582.05
2023-02-24T00:37:23.630Z,101579.40
2023-02-24T00:39:52.287Z,101581.44
2023-02-24T00:42:22.495Z,101583.23
2023-02-24T00:44:49.803Z,101578.48
2023-02-24T00:47:17.280Z,101572.73
2023-02-24T00:49:46.527Z,101576.14
2023-02-24T00:52:15.690Z,101568.46
2023-02-24T00:54:48.331Z,101558.88
2023-02-24T00:57:17.996Z,101562.01
2023-02-24T00:59:51.610Z,101550.11
2023-02-24T01:02:20.191Z,101540.44
2023-02-24T01:04:50.664Z,101536.98
2023-02-24T01:07:18.829Z,101541.83
2023-02-24T01:09:46.354Z,101539.94
2023-02-24T01:12:35.317Z,101532.67
2023-02-24T01:15:09.147Z,101528.52
2023-02-24T01:17:37.605Z,101534.75
2023-02-24T01:20:16.744Z,101533.38
2023-02-24T01:22:57.805Z,101537.95
2023-02-24T01:25:27.183Z,101536.86
2023-02-24T01:27:55.584Z,101539.63
2023-02-24T01:30:23.345Z,101535.45
2023-02-24T01:33:14.944Z,101539.73
2023-02-24T01:35:42.342Z,101537.46
2023-02-24T01:38:11.432Z,101534.67
2023-02-24T01:40:44.763Z,101529.77
2023-02-24T01:43:14.125Z,101529.77
2023-02-24T01:45:43.031Z,101529.45
2023-02-24T01:48:10.989Z,101531.81
2023-02-24T01:50:38.700Z,101524.40
2023-02-24T01:53:09.569Z,101531.04
2023-02-24T01:55:43.181Z,101532.77
2023-02-24T01:58:31.661Z,101528.75
2023-02-24T02:01:00.038Z,101533.56
2023-02-24T02:03:36.197Z,101530.23
2023-02-24T02:06:10.835Z,101529.54
2023-02-24T02:08:41.515Z,101522.96
2023-02-24T02:11:13.189Z,101522.94
2023-02-24T02:14:37.887Z,101517.51
2023-02-24T02:17:25.920Z,101518.48
2023-02-24T02:20:32.323Z,101514.35
2023-02-24T02:23:32.005Z,101510.45
2023-02-24T02:26:25.885Z,101513.45
2023-02-24T02:29:10.847Z,101514.33
2023-02-24T02:31:55.683Z,101514.00
2023-02-24T02:34:38.537Z,101514.47
2023-02-24T02:37:18.575Z,101509.20
2023-02-24T02:40:23.130Z,101511.58
2023-02-24T02:43:24.611Z,101510.21
2023-02-24T02:46:03.556Z,101512.14
2023-02-24T02:48:40.914Z,101505.89
2023-02-24T02:51:13.038Z,101498.46
2023-02-24T02:53:49.094Z,101501.80
2023-02-24T02:56:19.629Z,101495.11
2023-02-24T02:58:55.139Z,101489.17
2023-02-24T03:01:25.499Z,101488.02
2023-02-24T03:03:53.845Z,101485.10
2023-02-24T03:06:26.550Z,101487.24
2023-02-24T03:09:18.906Z,101486.00
2023-02-24T03:11:53.103Z,101481.02
2023-02-24T03:14:24.558Z,101476.23
2023-02-24T03:16:53.810Z,101475.77
2023-02-24T03:19:36.917Z,101474.17
2023-02-24T03:22:13.384Z,101470.28
2023-02-24T03:24:43.938Z,101471.94
2023-02-24T03:27:25.345Z,101468.97
2023-02-24T03:29:55.373Z,101462.27
2023-02-24T03:32:32.749Z,101460.89
2023-02-24T03:35:16.576Z,101450.81
2023-02-24T03:37:49.541Z,101449.58
2023-02-24T03:40:16.861Z,101451.65
2023-02-24T03:42:50.347Z,101448.70
2023-02-24T03:45:18.002Z,101448.86
2023-02-24T03:47:46.917Z,101439.70
2023-02-24T03:50:17.521Z,101437.87
2023-02-24T03:53:30.453Z,101434.68
2023-02-24T03:56:03.644Z,101437.10
2023-02-24T03:58:59.261Z,101439.81
2023-02-24T04:01:33.149Z,101432.83
2023-02-24T04:04:20.488Z,101427.94
2023-02-24T04:07:34.324Z,101411.55
2023-02-24T04:10:32.610Z,101411.46
2023-02-24T04:13:10.242Z,101417.51
2023-02-24T04:15:43.408Z,101423.98
2023-02-24T04:18:20.987Z,101421.77
2023-02-24T04:20:52.999Z,101420.52
2023-02-24T04:23:42.709Z,101421.90
2023-02-24T04:26:12.947Z,101418.54
2023-02-24T04:28:40.997Z,101424.21
2023-02-24T04:31:12.855Z,101421.95
2023-02-24T04:33:40.644Z,101417.86
2023-02-24T04:36:12.509Z,101411.10
2023-02-24T04:38:40.379Z,101409.89
2023-02-24T04:41:08.129Z,101411.33
2023-02-24T04:43:36.016Z,101405.09
2023-02-24T04:46:07.625Z,101398.53
2023-02-24T04:48:36.148Z,101401.83
2023-02-24T04:51:06.697Z,101402.00
2023-02-24T04:53:34.084Z,101400.63
2023-02-24T04:56:09.267Z,101404.27
2023-02-24T04:58:39.644Z,101399.39
2023-02-24T05:01:11.265Z,101393.48
2023-02-24T05:03:44.262Z,101392.51
2023-02-24T05:06:31.873Z,101391.60
2023-02-24T05:09:01.107Z,101396.89
2023-02-24T05:11:34.513Z,101396.77
2023-02-24T05:14:04.896Z,101398.20
2023-02-24T05:16:32.700Z,101401.70
2023-02-24T05:19:20.264Z,101406.69
2023-02-24T05:21:48.919Z,101407.55
2023-02-24T05:24:16.883Z,101403.11
2023-02-24T05:26:49.557Z,101402.25
2023-02-24T05:29:18.746Z,101399.89
2023-02-24T05:31:46.776Z,101398.20
2023-02-24T05:34:17.117Z,101398.58
2023-02-24T05:36:46.233Z,101389.27
2023-02-24T05:39:18.977Z,101394.14
2023-02-24T05:41:48.291Z,101395.18
2023-02-24T05:44:26.581Z,101396.94
2023-02-24T05:46:59.129Z,101387.38
2023-02-24T05:49:32.514Z,101391.80
2023-02-24T05:52:01.763Z,101392.02
2023-02-24T05:54:30.957Z,101384.21
2023-02-24T05:57:04.759Z,101377.49
2023-02-24T05:59:33.563Z,101371.73
2023-02-24T06:02:07.433Z,101373.27
2023-02-24T06:04:40.103Z,101372.36
2023-02-24T06:07:25.332Z,101367.80
2023-02-24T06:09:58.018Z,101366.02
2023-02-24T06:12:30.471Z,101362.86
2023-02-24T06:15:11.233Z,101365.23
2023-02-24T06:17:41.757Z,101366.04
2023-02-24T06:20:15.465Z,101365.44
2023-02-24T06:22:46.498Z,101361.11
2023-02-24T06:25:15.417Z,101356.55
2023-02-24T06:27:44.893Z,101354.50
2023-02-24T06:30:14.807Z,101350.73
2023-02-24T06:32:46.770Z,101354.41
2023-02-24T06:35:16.499Z,101352.55
2023-02-24T06:37:50.566Z,101352.70
2023-02-24T06:40:17.883Z,101345.27
2023-02-24T06:42:49.177Z,101339.85
2023-02-24T06:45:17.584Z,101332.94
2023-02-24T06:47:48.320Z,101322.78
2023-02-24T06:50:21.397Z,101322.98
2023-02-24T06:52:49.690Z,101312.92
2023-02-24T06:55:26.529Z,101311.54
2023-02-24T06:57:58.321Z,101305.27
2023-02-24T07:00:36.713Z,101301.97
2023-02-24T07:03:16.583Z,101291.81
2023-02-24T07:05:53.718Z,101293.02
2023-02-24T07:08:22.462Z,101290.48
2023-02-24T07:10:57.857Z,101288.55
2023-02-24T07:13:25.566Z,101284.70
2023-02-24T07:16:06.625Z,101286.23
2023-02-24T07:18:40.977Z,101288.13
2023-02-24T07:21:12.857Z,101289.67
2023-02-24T07:23:41.220Z,101285.08
2023-02-24T07:26:16.784Z,101287.43
2023-02-24T07:28:47.647Z,101286.02
2023-02-24T07:31:20.828Z,101288.54
2023-02-24T07:33:49.187Z,101282.51
2023-02-24T07:36:22.648Z,101280.25
2023-02-24T07:38:53.734Z,101271.67
2023-02-24T07:41:22.359Z,101272.98
2023-02-24T07:43:53.145Z,101271.58
2023-02-24T07:46:23.988Z,101256.54
2023-02-24T07:48:52.035Z,101258.30
2023-02-24T07:51:21.552Z,101261.95
2023-02-24T07:53:53.886Z,101259.45
2023-02-24T07:56:26.476Z,101257.32
2023-02-24T07:58:58.887Z,101254.30
2023-02-24T08:01:27.834Z,101248.05
2023-02-24T08:03:56.918Z,101243.17
2023-02-24T08:06:32.706Z,101241.90
2023-02-24T08:09:16.261Z,101240.42
2023-02-24T08:11:51.852Z,101236.05
2023-02-24T08:14:52.775Z,101241.32
2023-02-24T08:17:26.930Z,101239.00
2023-02-24T08:20:27.003Z,101243.20
2023-02-24T08:22:55.112Z,101241.44
2023-02-24T08:25:37.790Z,101239.78
2023-02-24T08:28:08.448Z,101236.73
2023-02-24T08:30:44.472Z,101234.89
2023-02-24T08:33:31.698Z,101233.49
2023-02-24T08:36:02.171Z,101229.04
2023-02-24T08:38:41.406Z,101225.61
2023-02-24T08:41:17.342Z,101221.37
2023-02-24T08:43:45.980Z,101222.39
2023-02-24T08:46:19.330Z,101224.41
2023-02-24T08:48:55.055Z,101215.98
2023-02-24T08:51:34.283Z,101214.59
2023-02-24T08:54:19.010Z,101208.44
2023-02-24T08:56:56.215Z,101206.58
2023-02-24T08:59:37.928Z,101201.92
2023-02-24T09:02:22.798Z,101197.46
2023-02-24T09:05:03.818Z,101197.39
2023-02-24T09:07:40.126Z,101192.11
2023-02-24T09:10:17.286Z,101188.83
2023-02-24T09:13:00.721Z,101184.41
2023-02-24T09:15:40.894Z,101185.04
2023-02-24T09:18:09.230Z,101179.77
2023-02-24T09:20:55.856Z,101175.62
2023-02-24T09:23:29.600Z,101171.34
2023-02-24T09:26:10.476Z,101163.13
2023-02-24T09:28:48.223Z,101160.38
2023-02-24T09:31:17.463Z,101157.35
2023-02-24T09:33:50.502Z,101158.77
2023-02-24T09:36:27.205Z,101155.83
2023-02-24T09:38:59.540Z,101144.31
2023-02-24T09:42:17.442Z,101139.31
2023-02-24T09:44:52.345Z,101120.77
2023-02-24T09:47:39.228Z,101123.46
2023-02-24T09:50:51.241Z,101115.84
2023-02-24T09:53:13.730Z,101118.80
2023-02-24T09:55:59.997Z,101109.86
2023-02-24T09:58:44.116Z,101109.09
2023-02-24T10:01:21.107Z,101100.52
2023-02-24T10:04:21.381Z,101099.10
2023-02-24T10:07:08.254Z,101092.64
2023-02-24T10:09:40.992Z,101086.45
2023-02-24T10:12:17.149Z,101076.48
2023-02-24T10:14:53.890Z,101069.06
2023-02-24T10:17:40.513Z,101063.20
2023-02-24T10:20:30.523Z,101056.09
2023-02-24T10:23:29.561Z,101052.04
2023-02-24T10:27:00.119Z,101050.05
2023-02-24T10:29:47.003Z,101038.39
2023-02-24T10:32:33.340Z,101031.77
2023-02-24T10:35:01.542Z,101023.46
2023-02-24T10:37:29.867Z,101024.69
2023-02-24T10:39:59.320Z,101019.30
2023-02-24T10:42:33.946Z,101011.38
2023-02-24T10:45:34.795Z,101000.12
2023-02-24T10:48:07.798Z,100993.27
2023-02-24T10:50:55.413Z,100990.71
2023-02-24T10:53:39.217Z,100984.60
2023-02-24T10:56:41.105Z,100980.33
2023-02-24T10:59:32.692Z,100971.77
2023-02-24T11:02:28.921Z,100966.42
2023-02-24T11:05:04.027Z,100957.51
2023-02-24T11:07:53.474Z,100952.48
2023-02-24T11:10:32.131Z,100948.55
2023-02-24T11:13:18.840Z,100946.27
2023-02-24T11:16:10.638Z,100937.40
2023-02-24T11:18:58.772Z,100930.88
2023-02-24T11:21:27.529Z,100921.17
2023-02-24T11:23:59.257Z,100920.73
2023-02-24T11:26:37.325Z,100914.65
2023-02-24T11:29:38.978Z,100910.49
2023-02-24T11:32:16.464Z,100907.36
2023-02-24T11:35:12.655Z,100902.45
2023-02-24T11:37:50.116Z,100890.13
2023-02-24T11:40:24.735Z,100884.44
2023-02-24T11:42:58.202Z,100887.27
2023-02-24T11:45:37.576Z,100872.14
2023-02-24T11:48:31.644Z,100872.89
2023-02-24T11:51:12.779Z,100864.81
2023-02-24T11:53:51.341Z,100865.59
2023-02-24T11:56:22.674Z,100855.59
2023-02-24T11:59:04.751Z,100858.59
2023-02-24T12:01:40.507Z,100851.48
2023-02-24T12:04:32.503Z,100849.66
2023-02-24T12:07:10.900Z,100841.81
2023-02-24T12:09:49.928Z,100838.72
2023-02-24T12:12:21.268Z,100834.11
2023-02-24T12:15:13.591Z,100836.65
2023-02-24T12:18:05.269Z,100834.77
2023-02-24T12:21:06.547Z,100827.86
2023-02-24T12:23:37.513Z,100828.31
2023-02-24T12:26:08.480Z,100826.84
2023-02-24T12:29:06.868Z,100817.48
2023-02-24T12:31:37.075Z,100818.44
2023-02-24T12:34:20.373Z,100813.96
2023-02-24T12:37:18.633Z,100805.94
2023-02-24T12:39:56.296Z,100810.49
2023-02-24T12:42:56.748Z,100803.31
2023-02-24T12:45:53.360Z,100804.11
2023-02-24T12:48:25.574Z,100794.30
2023-02-24T12:51:13.080Z,100779.42
2023-02-24T12:54:05.270Z,100779.84
2023-02-24T12:56:59.271Z,100776.58
2023-02-24T12:59:32.348Z,100771.15
2023-02-24T13:02:29.356Z,100765.48
2023-02-24T13:05:41.149Z,100764.71
2023-02-24T13:08:56.276Z,100760.73
2023-02-24T13:11:59.255Z,100755.33
2023-02-24T13:14:37.224Z,100752.45
2023-02-24T13:17:19.265Z,100746.59
2023-02-24T13:19:48.276Z,100746.77
2023-02-24T13:22:36.784Z,100743.22
2023-02-24T13:25:21.245Z,100739.02
2023-02-24T13:28:00.002Z,100738.50
2023-02-24T13:30:40.280Z,100737.75
2023-02-24T13:33:44.356Z,100733.85
2023-02-24T13:36:24.332Z,100725.71
2023-02-24T13:39:44.436Z,100721.09
2023-02-24T13:42:30.392Z,100714.83
2023-02-24T13:45:20.649Z,100713.28
2023-02-24T13:48:39.284Z,100701.09
2023-02-24T14:01:20.528Z,100682.85
2023-02-24T14:04:24.170Z,100676.41
2023-02-24T14:06:56.016Z,100676.83
2023-02-24T14:09:31.517Z,100671.77
2023-02-24T14:12:16.700Z,100672.74
2023-02-24T14:14:50.145Z,100667.37
2023-02-24T14:17:26.608Z,100661.73
2023-02-24T14:20:07.918Z,100657.63
2023-02-24T14:22:46.343Z,100653.73
2023-02-24T14:25:16.125Z,100652.38
2023-02-24T14:27:53.045Z,100650.89
2023-02-24T14:30:36.383Z,100653.58
2023-02-24T14:33:26.662Z,100650.17
2023-02-24T14:35:58.967Z,100651.50
2023-02-24T14:38:36.530Z,100648.77
2023-02-24T14:45:15.665Z,100650.23
2023-02-24T14:48:28.100Z,100647.46
2023-02-24T14:51:04.603Z,100643.08
2023-02-24T14:53:44.428Z,100640.55
2023-02-24T14:56:14.004Z,100643.05
2023-02-24T14:59:10.876Z,100641.42
2023-02-24T15:01:50.192Z,100640.54
2023-02-24T15:04:28.642Z,100635.46
2023-02-24T15:06:58.329Z,100632.70
2023-02-24T15:09:30.006Z,100629.95
2023-02-24T15:11:58.787Z,100625.84
2023-02-24T15:14:30.320Z,100629.00
2023-02-24T15:17:13.363Z,100625.71
2023-02-24T15:19:49.037Z,100628.02
2023-02-24T15:22:59.818Z,100629.09
2023-02-24T15:25:45.329Z,100625.45
2023-02-24T15:28:33.837Z,100624.46
2023-02-24T15:31:12.622Z,100619.80
2023-02-24T15:33:54.753Z,100616.19
2023-02-24T15:36:25.599Z,100616.58
2023-02-24T15:39:06.460Z,100614.57
2023-02-24T15:41:42.465Z,100616.59
2023-02-24T15:44:32.571Z,100614.73
2023-02-24T15:47:35.589Z,100615.85
2023-02-24T15:50:22.989Z,100612.92
2023-02-24T15:52:55.879Z,100610.92
2023-02-24T15:55:28.745Z,100609.33
2023-02-24T15:58:02.858Z,100610.69
2023-02-24T16:00:36.125Z,100606.36
2023-02-24T16:03:05.408Z,100606.32
2023-02-24T16:05:38.558Z,100604.09
2023-02-24T16:08:20.750Z,100606.21
2023-02-24T16:11:04.297Z,100600.02
2023-02-24T16:13:42.424Z,100599.46
2023-02-24T16:16:19.627Z,100599.52
2023-02-24T16:18:53.262Z,100594.23
2023-02-24T16:21:26.194Z,100588.06
2023-02-24T16:23:58.391Z,100579.64
2023-02-24T16:26:33.670Z,100581.66
2023-02-24T16:32:05.066Z,100577.98
2023-02-24T16:34:36.105Z,100580.83
2023-02-24T16:37:30.206Z,100581.25
2023-02-24T16:40:13.744Z,100582.11
2023-02-24T16:42:43.720Z,100579.66
2023-02-24T16:45:15.514Z,100577.78
2023-02-24T16:47:46.865Z,100574.59
2023-02-24T16:50:28.613Z,100568.06
2023-02-24T16:53:07.423Z,100561.48
2023-02-24T16:55:41.229Z,100562.13
2023-02-24T16:58:14.844Z,100564.19
2023-02-24T17:00:48.664Z,100558.39
2023-02-24T17:03:35.343Z,100555.95
2023-02-24T17:06:09.118Z,100555.59
2023-02-24T17:08:55.508Z,100557.79
2023-02-24T17:11:25.673Z,100549.94
2023-02-24T17:13:54.928Z,100548.91
2023-02-24T17:16:30.304Z,100542.98
2023-02-24T17:19:00.788Z,100539.11
2023-02-24T17:21:31.373Z,100539.38
2023-02-24T17:24:05.359Z,100534.17
2023-02-24T17:26:36.221Z,100529.66
2023-02-24T17:29:16.101Z,100531.18
2023-02-24T17:31:45.199Z,100523.88
2023-02-24T17:34:16.827Z,100520.38
2023-02-24T17:36:47.553Z,100514.59
2023-02-24T17:39:27.371Z,100510.39
2023-02-24T17:41:56.082Z,100509.66
2023-02-24T17:44:25.279Z,100505.83
2023-02-24T17:46:55.911Z,100499.39
2023-02-24T17:49:24.799Z,100501.41
2023-02-24T17:51:54.406Z,100497.67
2023-02-24T17:54:30.346Z,100493.95
2023-02-24T17:57:00.313Z,100490.88
2023-02-24T17:59:31.606Z,100488.15
2023-02-24T18:02:05.187Z,100480.77
2023-02-24T18:04:37.194Z,100477.58
2023-02-24T18:07:09.470Z,100468.50
2023-02-24T18:09:41.523Z,100466.91
2023-02-24T18:12:15.047Z,100462.16
2023-02-24T18:14:47.338Z,100461.71
2023-02-24T18:17:34.216Z,100459.56
2023-02-24T18:20:03.098Z,100453.50
2023-02-24T18:22:32.831Z,100453.08
2023-02-24T18:25:01.814Z,100452.07
2023-02-24T18:27:33.570Z,100448.58
2023-02-24T18:30:04.710Z,100442.95
2023-02-24T18:32:35.400Z,100445.79
2023-02-24T18:35:04.632Z,100444.27
2023-02-24T18:37:35.366Z,100443.07
2023-02-24T18:40:05.125Z,100445.40
2023-02-24T18:42:35.314Z,100439.11
2023-02-24T18:45:08.595Z,100441.41
2023-02-24T18:47:40.365Z,100438.99
2023-02-24T18:50:11.524Z,100436.92
2023-02-24T18:52:41.816Z,100437.15
2023-02-24T18:55:18.408Z,100431.32
2023-02-24T18:58:15.165Z,100432.52
2023-02-24T19:00:49.142Z,100429.55
2023-02-24T19:03:25.082Z,100424.85
2023-02-24T19:05:55.220Z,100428.70
2023-02-24T19:08:28.099Z,100426.38
2023-02-24T19:11:28.946Z,100428.09
2023-02-24T19:15:05.541Z,100422.83
2023-02-24T19:17:31.132Z,100426.48
2023-02-24T19:20:16.326Z,100422.69
2023-02-24T19:23:08.449Z,100426.45
2023-02-24T19:25:53.832Z,100417.16
2023-02-24T19:28:30.337Z,100419.05
2023-02-24T19:31:03.733Z,100417.52
2023-02-24T19:33:32.582Z,100419.20
2023-02-24T19:36:02.280Z,100420.04
2023-02-24T19:38:32.625Z,100411.77
2023-02-24T19:41:02.512Z,100408.64
2023-02-24T19:43:50.973Z,100401.04
2023-02-24T19:46:26.417Z,100394.35
2023-02-24T19:48:57.624Z,100397.14
2023-02-24T19:51:26.964Z,100400.41
2023-02-24T19:53:59.542Z,100397.14
2023-02-24T19:56:31.493Z,100396.11
2023-02-24T19:59:04.511Z,100392.66
2023-02-24T20:01:38.931Z,100393.48
2023-02-24T20:04:15.288Z,100392.81
2023-02-24T20:06:47.930Z,100382.58
2023-02-24T20:09:22.096Z,100383.27
2023-02-24T20:11:52.188Z,100382.71
2023-02-24T20:14:46.002Z,100381.33
2023-02-24T20:20:00.935Z,100381.58
2023-02-24T20:22:31.109Z,100377.46
2023-02-24T20:25:00.772Z,100370.46
2023-02-24T20:27:35.420Z,100367.48
2023-02-24T20:30:08.823Z,100364.70
2023-02-24T20:33:06.146Z,100366.63
2023-02-24T20:35:40.188Z,100366.84
2023-02-24T20:38:13.487Z,100364.64
2023-02-24T20:40:42.953Z,100362.92
2023-02-24T20:43:18.416Z,100357.13
2023-02-24T20:45:57.783Z,100353.91
2023-02-24T20:48:26.859Z,100352.59
2023-02-24T20:50:57.046Z,100352.41
2023-02-24T20:53:28.160Z,100353.58
2023-02-24T20:56:04.182Z,100347.04
2023-02-24T20:58:33.555Z,100346.66
2023-02-24T21:01:10.353Z,100344.65
2023-02-24T21:03:53.748Z,100339.80
2023-02-24T21:06:35.652Z,100339.48
2023-02-24T21:09:20.821Z,100333.00
2023-02-24T21:11:52.578Z,100332.52
2023-02-24T21:14:23.253Z,100330.91
2023-02-24T21:16:56.816Z,100325.61
2023-02-24T21:19:27.980Z,100322.20
2023-02-24T21:21:57.358Z,100317.77
2023-02-24T21:24:37.130Z,100315.89
2023-02-24T21:27:06.870Z,100312.88
2023-02-24T21:29:37.381Z,100308.34
2023-02-24T21:32:06.455Z,100305.46
2023-02-24T21:34:35.629Z,100307.22
2023-02-24T21:37:06.409Z,100304.07
2023-02-24T21:39:46.178Z,100301.95
2023-02-24T21:42:17.799Z,100300.55
2023-02-24T21:44:47.064Z,100292.14
2023-02-24T21:47:15.845Z,100292.19
2023-02-24T21:49:46.499Z,100291.65
2023-02-24T21:52:16.699Z,100283.25
2023-02-24T21:54:45.596Z,100276.33
2023-02-24T21:57:15.429Z,100271.30
2023-02-24T21:59:45.662Z,100268.69
2023-02-24T22:02:17.192Z,100267.07
2023-02-24T22:04:47.817Z,100259.38
2023-02-24T22:07:20.187Z,100261.73
2023-02-24T22:09:50.095Z,100260.08
2023-02-24T22:12:20.829Z,100259.19
2023-02-24T22:14:53.281Z,100256.40
2023-02-24T22:17:23.319Z,100250.27
2023-02-24T22:19:57.185Z,100254.02
2023-02-24T22:22:27.552Z,100254.49
2023-02-24T22:24:58.390Z,100251.46
2023-02-24T22:27:31.578Z,100254.46
2023-02-24T22:30:00.486Z,100251.46
2023-02-24T22:32:31.205Z,100249.43
2023-02-24T22:34:59.999Z,100245.83
2023-02-24T22:37:33.894Z,100246.14
2023-02-24T22:40:02.903Z,100242.41
2023-02-24T22:42:34.051Z,100238.41
2023-02-24T22:45:02.929Z,100235.44
2023-02-24T22:47:32.429Z,100230.54
2023-02-24T22:50:01.848Z,100229.95
2023-02-24T22:52:31.042Z,100226.02
2023-02-24T22:55:00.034Z,100227.75
2023-02-24T22:57:32.923Z,100222.39
2023-02-24T23:00:05.796Z,100219.93
2023-02-24T23:02:34.910Z,100212.87
2023-02-24T23:05:04.295Z,100209.56
2023-02-24T23:07:48.855Z,100203.18
2023-02-24T23:10:20.207Z,100200.97
2023-02-24T23:12:55.915Z,100195.75
2023-02-24T23:15:24.778Z,100190.46
2023-02-24T23:17:59.357Z,100184.09
2023-02-24T23:20:28.352Z,100180.20
2023-02-24T23:22:57.249Z,100169.68
2023-02-24T23:25:26.135Z,100169.35
2023-02-24T23:27:55.126Z,100158.79
2023-02-24T23:30:23.815Z,100156.49
2023-02-24T23:32:52.660Z,100150.36
2023-02-24T23:35:24.047Z,100146.95
2023-02-24T23:37:52.837Z,100147.95
2023-02-24T23:40:26.389Z,100144.77
2023-02-24T23:42:55.642Z,100141.95
2023-02-24T23:45:25.815Z,100146.09
2023-02-24T23:47:55.366Z,100142.29
2023-02-24T23:50:24.257Z,100141.48
2023-02-24T23:52:53.892Z,100137.20
2023-02-24T23:55:22.865Z,100134.11
2023-02-24T23:57:53.703Z,100131.11
